Apple River, Illinois
Current Conditions -  °F | °C
As of 1:15 AM on Sunday 23 Nov 2014 (Local Time) from KPVB Reporting Station
Overcast Overcast  
Wind Chill: 43°   Ceiling: 400
Heat Index: 49°   Visibility: 3mi
Dew Point: 47°   Wind: 16mph
Humidity: 96%   Direction: 170°S
Pressure: 29.71"   Gusts: 20mph
Location:  42.51°N, 90.1°W
Report Text: KPVB 230715Z AUTO 17014G17KT 3SM OVC004 09/09 A2971 RMK AO1 T00920086
Loading
Personal Weather Stations






























Interactive Weather Map New forecast layout! Learn more

10-Day Weather Forecast

Advertisements
Track Severe Weather on mobile